Portada
METAR-TAF:

METAR-TAF

Aeropuertos :

Aeropuerto Internacional de Windhoek Hosea Kutako

Windhoek, Namibia

latitud: 22-29S, longitud: 017-28E, altitud: 1715 m

Observación

El informe se hizo hace 3 horas y 42 minutos, a las 18:00 UTC
Viento 6 kt del sur
Temperatura 9°C
Humedad 43%
Presión 1024 hPa
Visibilidad 10 km o más
sin nubes por debajo de 1500 m y sin presencia de cumulonimbus.

METAR: FYWH 261800Z 17006KT CAVOK 09/M03 Q1024 NOSIG

Hora: 23:42 (21:42 UTC)

Pronóstico

El informe se hizo hace 5 horas y 42 minutos, a las 16:00 UTC
Pronóstico válido del 26 a las 18 UTC al 27 a las 18 UTC
Viento 8 kt del este-sureste
Visibilidad 10 km o más
sin nubes por debajo de 1500 m y sin presencia de cumulonimbus.
Evolucionando progresivamente
del 26 a las 20 UTC al 26 a las 22 UTC
Viento 6 kt del oeste

TAF: FYWH 261600Z 2618/2718 12008KT CAVOK BECMG 2620/2622 27006KT

Observaciones y pronósticos meteorológicos de más de 4000 aeropuertos (mensajes METAR y TAF).

Los puntos amarillos y rojos representan las estaciones disponibles.

Ponga el ratón en el punto deseado para ver el nombre de la estación.

Haga clic para ver las observaciones y los pronósticos meteorológicos.

Para cambiar el mapa : haga clic en los botones verdes con una cruz de color negro para hacer un zoom, en el botón verde con un guión para alejar o en las flechas verdes para mapas adyacentes.


METAR-TAF: